createdAt,value
2022-09-04T00:00:59.381Z,2.10
2022-09-04T00:01:59.301Z,1.80
2022-09-04T00:02:59.268Z,1.90
2022-09-04T00:04:00.265Z,1.80
2022-09-04T00:04:59.405Z,1.80
2022-09-04T00:05:59.242Z,2.10
2022-09-04T00:06:59.210Z,1.90
2022-09-04T00:07:59.232Z,1.90
2022-09-04T00:08:59.207Z,2.10
2022-09-04T00:09:59.196Z,2.00
2022-09-04T00:10:59.183Z,1.90
2022-09-04T00:12:00.113Z,1.90
2022-09-04T00:12:59.196Z,2.40
2022-09-04T00:14:00.100Z,1.90
2022-09-04T00:14:59.136Z,2.40
2022-09-04T00:15:59.124Z,2.40
2022-09-04T00:16:59.173Z,1.90
2022-09-04T00:17:59.107Z,2.00
2022-09-04T00:18:59.446Z,2.00
2022-09-04T00:19:59.068Z,2.00
2022-09-04T00:20:59.112Z,2.40
2022-09-04T00:21:59.050Z,2.10
2022-09-04T00:22:59.029Z,2.00
2022-09-04T00:23:59.039Z,2.30
2022-09-04T00:24:59.060Z,1.90
2022-09-04T00:25:59.012Z,2.20
2022-09-04T00:26:59.044Z,2.30
2022-09-04T00:27:58.970Z,2.00
2022-09-04T00:28:59.049Z,2.10
2022-09-04T00:29:58.972Z,2.30
2022-09-04T00:30:59.080Z,2.00
2022-09-04T00:31:58.960Z,2.40
2022-09-04T00:32:58.932Z,2.10
2022-09-04T00:33:58.946Z,2.20
2022-09-04T00:34:58.930Z,2.30
2022-09-04T00:35:58.890Z,2.10
2022-09-04T00:36:58.898Z,2.10
2022-09-04T00:37:58.871Z,2.20
2022-09-04T00:38:58.881Z,2.50
2022-09-04T00:39:58.899Z,2.10
2022-09-04T00:40:58.843Z,2.10
2022-09-04T00:41:58.833Z,2.20
2022-09-04T00:42:58.889Z,2.20
2022-09-04T00:43:58.851Z,2.00
2022-09-04T00:44:58.796Z,2.10
2022-09-04T00:45:58.848Z,2.00
2022-09-04T00:46:58.765Z,2.20
2022-09-04T00:47:58.751Z,2.10
2022-09-04T00:48:58.765Z,2.10
2022-09-04T00:49:58.786Z,2.10
2022-09-04T00:50:58.736Z,2.10
2022-09-04T00:51:58.737Z,2.30
2022-09-04T00:52:59.316Z,2.30
2022-09-04T00:53:58.711Z,1.70
2022-09-04T00:54:58.676Z,2.00
2022-09-04T00:55:58.699Z,1.90
2022-09-04T00:56:58.686Z,2.00
2022-09-04T00:57:58.648Z,1.90
2022-09-04T00:58:58.629Z,1.90
2022-09-04T00:59:58.628Z,2.20
2022-09-04T01:00:58.705Z,2.30
2022-09-04T01:01:58.684Z,1.80
2022-09-04T01:02:58.597Z,2.30
2022-09-04T01:03:58.616Z,2.10
2022-09-04T01:04:58.574Z,2.10
2022-09-04T01:05:58.554Z,2.00
2022-09-04T01:06:58.542Z,2.20
2022-09-04T01:07:58.568Z,2.10
2022-09-04T01:08:58.516Z,2.00
2022-09-04T01:09:58.503Z,2.20
2022-09-04T01:10:58.501Z,2.10
2022-09-04T01:11:58.494Z,2.00
2022-09-04T01:12:58.487Z,2.60
2022-09-04T01:13:58.492Z,2.00
2022-09-04T01:14:58.494Z,2.10
2022-09-04T01:15:58.465Z,2.00
2022-09-04T01:16:58.434Z,2.20
2022-09-04T01:17:58.436Z,2.30
2022-09-04T01:18:58.456Z,2.40
2022-09-04T01:19:58.396Z,2.00
2022-09-04T01:20:58.405Z,2.00
2022-09-04T01:21:58.374Z,2.20
2022-09-04T01:22:58.365Z,2.10
2022-09-04T01:23:58.359Z,2.30
2022-09-04T01:24:58.370Z,2.00
2022-09-04T01:25:58.341Z,2.10
2022-09-04T01:26:58.317Z,2.10
2022-09-04T01:27:58.323Z,2.00
2022-09-04T01:28:58.317Z,2.40
2022-09-04T01:29:58.310Z,2.10
2022-09-04T01:30:58.293Z,2.20
2022-09-04T01:31:58.314Z,1.90
2022-09-04T01:32:58.239Z,2.30
2022-09-04T01:33:58.274Z,2.10
2022-09-04T01:34:58.251Z,2.10
2022-09-04T01:35:58.223Z,2.10
2022-09-04T01:36:58.239Z,2.00
2022-09-04T01:37:58.205Z,2.30
2022-09-04T01:38:58.180Z,2.20
2022-09-04T01:39:58.263Z,2.20
2022-09-04T01:40:58.188Z,2.00
2022-09-04T01:41:58.209Z,1.90
2022-09-04T01:42:58.124Z,2.50
2022-09-04T01:43:58.123Z,2.30
2022-09-04T01:44:58.163Z,2.20
2022-09-04T01:45:58.177Z,2.10
2022-09-04T01:46:58.100Z,2.20
2022-09-04T01:47:58.114Z,2.60
2022-09-04T01:48:58.068Z,2.40
2022-09-04T01:49:59.063Z,2.10
2022-09-04T01:50:58.051Z,2.10
2022-09-04T01:51:58.064Z,2.50
2022-09-04T01:52:58.022Z,2.40
2022-09-04T01:53:58.069Z,2.20
2022-09-04T01:54:58.086Z,2.30
2022-09-04T01:55:58.009Z,2.10
2022-09-04T01:56:57.984Z,2.20
2022-09-04T01:57:57.971Z,2.20
2022-09-04T01:58:57.973Z,2.40
2022-09-04T01:59:58.039Z,2.40
2022-09-04T02:00:58.042Z,2.20
2022-09-04T02:01:58.024Z,2.10
2022-09-04T02:02:57.914Z,2.10
2022-09-04T02:03:57.921Z,2.10
2022-09-04T02:04:57.892Z,2.10
2022-09-04T02:05:57.915Z,2.20
2022-09-04T02:06:57.888Z,2.40
2022-09-04T02:07:57.891Z,2.00
2022-09-04T02:09:07.622Z,2.10
2022-09-04T02:09:57.887Z,1.90
2022-09-04T02:10:57.841Z,2.00
2022-09-04T02:11:57.840Z,2.00
2022-09-04T02:12:57.790Z,2.20
2022-09-04T02:13:57.812Z,2.20
2022-09-04T02:14:57.782Z,1.80
2022-09-04T02:15:57.841Z,2.30
2022-09-04T02:16:57.782Z,2.30
2022-09-04T02:17:57.793Z,2.10
2022-09-04T02:18:57.723Z,2.20
2022-09-04T02:19:57.714Z,2.20
2022-09-04T02:20:57.732Z,2.00
2022-09-04T02:21:57.703Z,2.10
2022-09-04T02:22:57.717Z,2.20
2022-09-04T02:23:57.674Z,2.20
2022-09-04T02:24:57.680Z,2.40
2022-09-04T02:25:57.697Z,2.10
2022-09-04T02:26:57.674Z,2.40
2022-09-04T02:27:57.689Z,1.90
2022-09-04T02:28:57.659Z,2.20
2022-09-04T02:29:57.637Z,2.40
2022-09-04T02:30:57.612Z,2.50
2022-09-04T02:31:57.705Z,2.20
2022-09-04T02:32:57.603Z,2.50
2022-09-04T02:33:57.569Z,2.20
2022-09-04T02:34:57.559Z,2.40
2022-09-04T02:35:57.538Z,2.30
2022-09-04T02:36:57.530Z,2.10
2022-09-04T02:37:57.549Z,2.30
2022-09-04T02:38:57.512Z,2.20
2022-09-04T02:39:57.522Z,2.40
2022-09-04T02:40:57.524Z,2.40
2022-09-04T02:41:57.513Z,2.50
2022-09-04T02:42:57.466Z,2.40
2022-09-04T02:43:57.489Z,2.50
2022-09-04T02:44:57.436Z,2.20
2022-09-04T02:45:57.481Z,2.20
2022-09-04T02:46:57.461Z,2.30
2022-09-04T02:47:57.493Z,2.30
2022-09-04T02:48:57.442Z,2.50
2022-09-04T02:49:57.404Z,2.40
2022-09-04T02:50:57.363Z,2.30
2022-09-04T02:51:57.396Z,2.40
2022-09-04T02:52:57.346Z,2.30
2022-09-04T02:53:57.363Z,2.40
2022-09-04T02:54:57.330Z,2.30
2022-09-04T02:55:57.343Z,2.10
2022-09-04T02:56:57.310Z,2.50
2022-09-04T02:57:57.297Z,2.20
2022-09-04T02:58:57.324Z,2.30
2022-09-04T02:59:57.286Z,2.60
2022-09-04T03:00:57.313Z,2.30
2022-09-04T03:01:57.319Z,2.30
2022-09-04T03:02:57.285Z,2.20
2022-09-04T03:03:57.249Z,2.70
2022-09-04T03:04:57.213Z,2.60
2022-09-04T03:05:57.206Z,2.60
2022-09-04T03:06:57.207Z,2.70
2022-09-04T03:07:57.187Z,2.40
2022-09-04T03:08:57.232Z,2.30
2022-09-04T03:09:57.158Z,2.30
2022-09-04T03:10:57.153Z,2.50
2022-09-04T03:11:57.148Z,2.40
2022-09-04T03:12:57.169Z,2.50
2022-09-04T03:13:57.132Z,2.30
2022-09-04T03:14:57.130Z,2.40
2022-09-04T03:15:57.190Z,2.40
2022-09-04T03:16:57.126Z,2.60
2022-09-04T03:17:57.089Z,2.80
2022-09-04T03:18:57.065Z,2.90
2022-09-04T03:19:57.044Z,2.50
2022-09-04T03:20:57.056Z,2.90
2022-09-04T03:21:57.056Z,2.70
2022-09-04T03:22:57.032Z,2.70
2022-09-04T03:23:57.016Z,2.70
2022-09-04T03:24:56.994Z,2.50
2022-09-04T03:25:57.014Z,2.50
2022-09-04T03:26:57.014Z,2.50
2022-09-04T03:27:57.217Z,2.60
2022-09-04T03:28:56.985Z,2.60
2022-09-04T03:29:57.006Z,2.70
2022-09-04T03:30:56.936Z,2.50
2022-09-04T03:31:56.997Z,2.60
2022-09-04T03:32:57.002Z,2.60
2022-09-04T03:33:56.915Z,2.70
2022-09-04T03:34:56.872Z,2.70
2022-09-04T03:35:56.875Z,2.80
2022-09-04T03:36:56.905Z,2.50
2022-09-04T03:37:56.860Z,2.60
2022-09-04T03:38:56.868Z,2.40
2022-09-04T03:39:56.899Z,2.30
2022-09-04T03:40:56.799Z,2.40
2022-09-04T03:41:56.820Z,2.60
2022-09-04T03:42:56.799Z,2.50
2022-09-04T03:43:56.786Z,2.60
2022-09-04T03:44:56.803Z,2.90
2022-09-04T03:45:56.770Z,2.80
2022-09-04T03:46:56.790Z,3.00
2022-09-04T03:47:56.749Z,2.80
2022-09-04T03:48:56.710Z,2.90
2022-09-04T03:49:56.710Z,3.10
2022-09-04T03:50:56.755Z,3.00
2022-09-04T03:51:56.703Z,3.10
2022-09-04T03:52:56.674Z,2.70
2022-09-04T03:53:56.728Z,2.80
2022-09-04T03:54:56.652Z,3.00
2022-09-04T03:55:56.645Z,2.70
2022-09-04T03:56:56.654Z,2.50
2022-09-04T03:57:56.638Z,2.70
2022-09-04T03:58:56.624Z,2.50
2022-09-04T03:59:56.663Z,2.70
2022-09-04T04:00:56.687Z,2.90
2022-09-04T04:01:56.579Z,3.10
2022-09-04T04:02:56.648Z,2.60
2022-09-04T04:03:56.620Z,2.60
2022-09-04T04:04:57.368Z,2.90
2022-09-04T04:05:56.662Z,3.00
2022-09-04T04:06:57.985Z,3.00
2022-09-04T04:07:57.381Z,2.90
2022-09-04T04:08:57.177Z,2.50
2022-09-04T04:09:57.287Z,3.00
2022-09-04T04:10:56.807Z,3.20
2022-09-04T04:11:57.944Z,3.00
2022-09-04T04:12:57.928Z,2.80
2022-09-04T04:13:57.928Z,3.00
2022-09-04T04:14:56.472Z,3.00
2022-09-04T04:15:57.433Z,3.00
2022-09-04T04:16:57.208Z,2.70
2022-09-04T04:17:57.868Z,2.80
2022-09-04T04:18:57.844Z,2.90
2022-09-04T04:19:56.504Z,2.90
2022-09-04T04:20:57.834Z,3.00
2022-09-04T04:21:56.384Z,2.70
2022-09-04T04:22:57.806Z,2.70
2022-09-04T04:23:57.828Z,2.80
2022-09-04T04:24:57.795Z,2.70
2022-09-04T04:25:57.130Z,3.20
2022-09-04T04:26:57.764Z,2.80
2022-09-04T04:27:57.760Z,3.10
2022-09-04T04:28:56.277Z,2.90
2022-09-04T04:29:57.718Z,2.90
2022-09-04T04:30:56.345Z,3.10
2022-09-04T04:31:57.047Z,3.10
2022-09-04T04:32:56.269Z,3.20
2022-09-04T04:33:57.112Z,2.80
2022-09-04T04:34:57.604Z,3.10
2022-09-04T04:35:56.325Z,3.00
2022-09-04T04:36:57.657Z,2.90
2022-09-04T04:37:56.636Z,2.60
2022-09-04T04:38:57.653Z,2.90
2022-09-04T04:39:56.741Z,3.40
2022-09-04T04:40:57.609Z,3.10
2022-09-04T04:41:57.597Z,2.90
2022-09-04T04:42:57.507Z,2.80
2022-09-04T04:43:56.229Z,3.30
2022-09-04T04:44:57.662Z,2.80
2022-09-04T04:45:56.127Z,2.90
2022-09-04T04:46:56.250Z,3.00
2022-09-04T04:47:57.534Z,3.20
2022-09-04T04:48:56.104Z,3.30
2022-09-04T04:49:56.232Z,3.60
2022-09-04T04:50:56.212Z,3.00
2022-09-04T04:51:56.384Z,3.20
2022-09-04T04:52:56.049Z,3.10
2022-09-04T04:53:56.320Z,3.20
2022-09-04T04:54:56.059Z,3.10
2022-09-04T04:55:55.981Z,3.40
2022-09-04T04:56:56.129Z,3.10
2022-09-04T04:57:56.811Z,3.10
2022-09-04T04:58:55.951Z,3.00
2022-09-04T04:59:55.941Z,3.20
2022-09-04T05:00:56.582Z,3.30
2022-09-04T05:01:56.051Z,3.00
2022-09-04T05:02:55.970Z,3.10
2022-09-04T05:03:55.895Z,3.10
2022-09-04T05:04:55.966Z,3.10
2022-09-04T05:05:55.934Z,2.90
2022-09-04T05:06:56.652Z,3.20
2022-09-04T05:07:55.865Z,3.00
2022-09-04T05:08:57.523Z,3.40
2022-09-04T05:09:55.874Z,3.40
2022-09-04T05:10:55.844Z,3.20
2022-09-04T05:11:56.555Z,3.00
2022-09-04T05:12:56.746Z,3.30
2022-09-04T05:13:56.568Z,3.10
2022-09-04T05:14:56.566Z,3.10
2022-09-04T05:16:09.014Z,3.40
2022-09-04T05:16:58.249Z,3.50
2022-09-04T05:17:55.741Z,3.30
2022-09-04T05:18:55.721Z,3.00
2022-09-04T05:19:56.559Z,3.30
2022-09-04T05:20:57.527Z,3.00
2022-09-04T05:21:55.724Z,3.10
2022-09-04T05:22:57.528Z,3.20
2022-09-04T05:23:55.687Z,3.30
2022-09-04T05:24:56.486Z,3.00
2022-09-04T05:25:56.594Z,2.90
2022-09-04T05:26:55.762Z,3.20
2022-09-04T05:27:57.555Z,3.50
2022-09-04T05:28:57.540Z,3.20
2022-09-04T05:29:56.409Z,3.00
2022-09-04T05:30:57.585Z,2.90
2022-09-04T05:31:56.980Z,3.10
2022-09-04T05:32:57.530Z,3.50
2022-09-04T05:33:57.261Z,3.20
2022-09-04T05:34:55.577Z,3.20
2022-09-04T05:35:57.500Z,2.90
2022-09-04T05:36:56.322Z,2.80
2022-09-04T05:37:55.509Z,2.80
2022-09-04T05:38:57.447Z,2.90
2022-09-04T05:39:56.729Z,3.00
2022-09-04T05:40:55.610Z,2.90
2022-09-04T05:41:56.425Z,3.00
2022-09-04T05:42:56.333Z,2.90
2022-09-04T05:43:55.462Z,3.10
2022-09-04T05:44:57.414Z,3.30
2022-09-04T05:45:55.430Z,3.10
2022-09-04T05:46:56.245Z,2.60
2022-09-04T05:47:56.202Z,2.80
2022-09-04T05:48:55.508Z,2.80
2022-09-04T05:49:55.400Z,2.80
2022-09-04T05:50:55.380Z,3.00
2022-09-04T05:51:55.654Z,2.70
2022-09-04T05:52:55.378Z,3.20
2022-09-04T05:54:00.775Z,3.10
2022-09-04T05:54:57.279Z,2.70
2022-09-04T05:55:57.294Z,3.30
2022-09-04T05:56:56.119Z,3.00
2022-09-04T05:57:55.565Z,2.80
2022-09-04T05:58:56.090Z,2.80
2022-09-04T05:59:57.251Z,3.20
2022-09-04T06:00:57.261Z,2.80
2022-09-04T06:01:55.282Z,2.60
2022-09-04T06:02:57.282Z,2.70
2022-09-04T06:03:55.470Z,3.00
2022-09-04T06:04:56.006Z,2.70
2022-09-04T06:05:57.171Z,3.10
2022-09-04T06:06:57.175Z,2.90
2022-09-04T06:07:55.228Z,3.10
2022-09-04T06:08:56.569Z,2.60
2022-09-04T06:09:57.094Z,2.70
2022-09-04T06:10:57.090Z,2.90
2022-09-04T06:11:55.935Z,3.00
2022-09-04T06:12:55.116Z,3.00
2022-09-04T06:13:57.079Z,2.70
2022-09-04T06:14:55.113Z,2.90
2022-09-04T06:15:56.005Z,2.50
2022-09-04T06:16:57.609Z,2.90
2022-09-04T06:17:57.028Z,2.70
2022-09-04T06:18:57.012Z,2.70
2022-09-04T06:19:55.173Z,3.10
2022-09-04T06:20:55.119Z,2.60
2022-09-04T06:21:55.300Z,3.30
2022-09-04T06:22:58.417Z,2.60
2022-09-04T06:23:55.766Z,3.10
2022-09-04T06:24:56.943Z,2.80
2022-09-04T06:25:56.929Z,3.10
2022-09-04T06:26:56.933Z,2.70
2022-09-04T06:27:55.766Z,2.50
2022-09-04T06:28:55.878Z,2.90
2022-09-04T06:29:55.340Z,2.70
2022-09-04T06:30:56.694Z,3.10
2022-09-04T06:31:55.393Z,2.80
2022-09-04T06:32:56.882Z,2.80
2022-09-04T06:33:56.673Z,2.70
2022-09-04T06:34:56.832Z,2.70
2022-09-04T06:35:56.824Z,2.60
2022-09-04T06:36:56.814Z,2.50
2022-09-04T06:37:55.689Z,3.20
2022-09-04T06:38:56.292Z,2.60
2022-09-04T06:39:55.108Z,2.80
2022-09-04T06:40:56.265Z,2.70
2022-09-04T06:41:57.116Z,3.00
2022-09-04T06:42:55.783Z,2.60
2022-09-04T06:43:55.630Z,2.80
2022-09-04T06:44:56.725Z,2.60
2022-09-04T06:46:01.529Z,2.60
2022-09-04T06:46:57.709Z,2.90
2022-09-04T06:47:56.674Z,2.60
2022-09-04T06:48:55.524Z,2.90
2022-09-04T06:49:55.527Z,2.90
2022-09-04T06:50:56.656Z,2.70
2022-09-04T06:51:55.455Z,2.60
2022-09-04T06:52:59.089Z,2.80
2022-09-04T06:53:55.497Z,2.60
2022-09-04T06:54:56.619Z,2.90
2022-09-04T06:55:56.597Z,2.70
2022-09-04T06:56:55.455Z,2.80
2022-09-04T06:57:56.609Z,2.50
2022-09-04T06:59:01.056Z,2.80
2022-09-04T06:59:56.558Z,2.60
2022-09-04T07:00:56.540Z,2.40
2022-09-04T07:01:55.485Z,2.90
2022-09-04T07:02:56.646Z,2.40
2022-09-04T07:03:56.523Z,2.60
2022-09-04T07:04:56.562Z,2.50
2022-09-04T07:05:56.998Z,2.40
2022-09-04T07:06:55.364Z,2.60
2022-09-04T07:07:55.433Z,2.70
2022-09-04T07:08:56.451Z,2.90
2022-09-04T07:09:59.922Z,2.40
2022-09-04T07:10:57.432Z,2.70
2022-09-04T07:11:55.296Z,2.50
2022-09-04T07:12:56.425Z,2.30
2022-09-04T07:13:55.225Z,2.20
2022-09-04T07:14:56.387Z,2.60
2022-09-04T07:15:55.825Z,3.00
2022-09-04T07:16:55.349Z,2.70
2022-09-04T07:18:00.748Z,2.60
2022-09-04T07:18:56.176Z,2.70
2022-09-04T07:19:56.325Z,2.30
2022-09-04T07:20:56.316Z,2.90
2022-09-04T07:21:55.117Z,2.40
2022-09-04T07:22:55.776Z,2.40
2022-09-04T07:24:00.752Z,2.50
2022-09-04T07:24:55.131Z,2.50
2022-09-04T07:25:56.262Z,2.30
2022-09-04T07:26:55.707Z,2.60
2022-09-04T07:27:56.247Z,2.30
2022-09-04T07:28:56.214Z,2.40
2022-09-04T07:29:56.220Z,2.20
2022-09-04T07:30:55.055Z,2.40
2022-09-04T07:31:55.965Z,2.30
2022-09-04T07:32:56.181Z,2.10
2022-09-04T07:33:56.156Z,2.50
2022-09-04T07:34:56.162Z,2.20
2022-09-04T07:35:54.970Z,2.20
2022-09-04T07:36:56.151Z,2.30
2022-09-04T07:37:56.615Z,2.40
2022-09-04T07:38:54.970Z,2.40
2022-09-04T07:39:56.187Z,2.40
2022-09-04T07:40:54.977Z,1.90
2022-09-04T07:41:56.085Z,2.00
2022-09-04T07:42:56.074Z,2.20
2022-09-04T07:43:56.065Z,2.40
2022-09-04T07:44:54.134Z,2.40
2022-09-04T07:45:56.060Z,2.10
2022-09-04T07:46:54.275Z,2.50
2022-09-04T07:47:54.817Z,2.00
2022-09-04T07:48:56.058Z,2.10
2022-09-04T07:49:55.996Z,2.20
2022-09-04T07:50:55.975Z,2.20
2022-09-04T07:51:55.977Z,2.30
2022-09-04T07:52:54.824Z,2.20
2022-09-04T07:53:54.034Z,2.20
2022-09-04T07:54:55.961Z,2.30
2022-09-04T07:55:54.919Z,2.40
2022-09-04T07:56:55.987Z,2.30
2022-09-04T07:57:55.889Z,2.10
2022-09-04T07:58:54.740Z,2.10
2022-09-04T07:59:55.887Z,2.30
2022-09-04T08:00:55.305Z,2.10
2022-09-04T08:01:55.928Z,2.00
2022-09-04T08:02:55.883Z,2.20
2022-09-04T08:03:55.845Z,2.20
2022-09-04T08:04:53.956Z,2.30
2022-09-04T08:05:53.901Z,2.30
2022-09-04T08:06:55.804Z,2.20
2022-09-04T08:07:55.312Z,2.10
2022-09-04T08:08:55.782Z,2.10
2022-09-04T08:09:55.821Z,2.10
2022-09-04T08:10:53.909Z,2.40
2022-09-04T08:11:55.751Z,2.30
2022-09-04T08:12:55.729Z,2.30
2022-09-04T08:13:54.563Z,2.40
2022-09-04T08:14:55.703Z,2.20
2022-09-04T08:15:54.612Z,2.20
2022-09-04T08:16:55.708Z,1.90
2022-09-04T08:17:54.511Z,1.80
2022-09-04T08:18:55.694Z,2.30
2022-09-04T08:19:55.656Z,1.90
2022-09-04T08:20:53.824Z,2.30
2022-09-04T08:21:55.630Z,2.50
2022-09-04T08:22:54.628Z,2.30
2022-09-04T08:23:53.670Z,2.30
2022-09-04T08:24:53.700Z,2.60
2022-09-04T08:25:55.641Z,2.50
2022-09-04T08:26:54.401Z,2.60
2022-09-04T08:27:55.552Z,2.60
2022-09-04T08:28:53.842Z,2.20
2022-09-04T08:29:53.658Z,2.10
2022-09-04T08:30:54.539Z,2.80
2022-09-04T08:31:55.524Z,2.70
2022-09-04T08:32:54.327Z,2.40
2022-09-04T08:33:55.480Z,2.50
2022-09-04T08:34:55.490Z,2.50
2022-09-04T08:35:55.472Z,2.70
2022-09-04T08:36:55.458Z,2.30
2022-09-04T08:37:54.356Z,2.60
2022-09-04T08:38:55.453Z,2.30
2022-09-04T08:39:55.463Z,2.50
2022-09-04T08:40:55.454Z,2.50
2022-09-04T08:41:55.399Z,2.30
2022-09-04T08:42:54.259Z,2.20
2022-09-04T08:43:55.410Z,2.60
2022-09-04T08:44:55.427Z,2.40
2022-09-04T08:45:55.452Z,2.20
2022-09-04T08:46:54.275Z,2.60
2022-09-04T08:47:54.276Z,2.40
2022-09-04T08:48:53.358Z,2.10
2022-09-04T08:49:54.188Z,2.20
2022-09-04T08:50:54.192Z,2.20
2022-09-04T08:51:55.278Z,2.00
2022-09-04T08:52:55.296Z,2.30
2022-09-04T08:53:54.167Z,2.30
2022-09-04T08:54:55.443Z,2.20
2022-09-04T08:55:53.467Z,2.30
2022-09-04T08:56:55.238Z,2.10
2022-09-04T08:57:53.295Z,2.50
2022-09-04T08:58:55.133Z,2.20
2022-09-04T08:59:53.432Z,2.00
2022-09-04T09:00:55.354Z,2.20
2022-09-04T09:01:55.168Z,2.10
2022-09-04T09:02:55.742Z,2.30
2022-09-04T09:03:55.170Z,2.20
2022-09-04T09:04:55.181Z,2.30
2022-09-04T09:05:54.003Z,2.00
2022-09-04T09:06:55.126Z,2.40
2022-09-04T09:07:54.601Z,2.30
2022-09-04T09:08:55.171Z,2.50
2022-09-04T09:09:55.228Z,2.50
2022-09-04T09:10:53.582Z,2.20
2022-09-04T09:11:53.255Z,2.30
2022-09-04T09:12:53.107Z,2.00
2022-09-04T09:13:53.183Z,2.10
2022-09-04T09:14:53.120Z,2.10
2022-09-04T09:15:53.211Z,2.40
2022-09-04T09:16:53.463Z,2.20
2022-09-04T09:17:53.439Z,2.20
2022-09-04T09:18:53.037Z,2.10
2022-09-04T09:19:53.617Z,2.30
2022-09-04T09:20:53.590Z,2.30
2022-09-04T09:21:52.997Z,2.50
2022-09-04T09:22:52.986Z,2.30
2022-09-04T09:23:53.035Z,2.10
2022-09-04T09:24:53.056Z,2.10
2022-09-04T09:25:52.979Z,2.30
2022-09-04T09:26:52.984Z,2.60
2022-09-04T09:27:52.954Z,2.30
2022-09-04T09:28:53.119Z,2.40
2022-09-04T09:29:53.022Z,2.00
2022-09-04T09:30:53.014Z,2.20
2022-09-04T09:31:52.934Z,2.40
2022-09-04T09:32:53.013Z,2.20
2022-09-04T09:33:52.958Z,1.90
2022-09-04T09:34:52.874Z,2.20
2022-09-04T09:35:52.838Z,2.20
2022-09-04T09:36:52.843Z,2.00
2022-09-04T09:37:52.818Z,2.10
2022-09-04T09:38:52.858Z,2.30
2022-09-04T09:39:53.633Z,2.10
2022-09-04T09:40:52.821Z,1.90
2022-09-04T09:41:52.958Z,1.80
2022-09-04T09:42:52.862Z,1.80
2022-09-04T09:43:55.302Z,2.00
2022-09-04T09:44:52.758Z,2.00
2022-09-04T09:45:52.941Z,1.80
2022-09-04T09:46:52.732Z,1.90
2022-09-04T09:47:52.841Z,1.80
2022-09-04T09:48:52.720Z,1.90
2022-09-04T09:49:52.716Z,2.10
2022-09-04T09:50:52.683Z,1.90
2022-09-04T09:51:52.686Z,2.00
2022-09-04T09:52:52.654Z,2.10
2022-09-04T09:53:52.642Z,2.00
2022-09-04T09:54:52.863Z,1.90
2022-09-04T09:55:52.966Z,1.90
2022-09-04T09:56:54.077Z,1.80
2022-09-04T09:57:53.293Z,2.10
2022-09-04T09:58:52.741Z,1.80
2022-09-04T09:59:52.705Z,2.00
2022-09-04T10:00:52.672Z,2.00
2022-09-04T10:01:52.847Z,2.20
2022-09-04T10:02:52.574Z,2.10
2022-09-04T10:03:52.539Z,2.10
2022-09-04T10:04:52.558Z,2.00
2022-09-04T10:05:52.603Z,2.10
2022-09-04T10:06:52.510Z,2.10
2022-09-04T10:07:52.480Z,2.30
2022-09-04T10:08:54.586Z,2.20
2022-09-04T10:09:52.460Z,2.30
2022-09-04T10:10:52.650Z,2.20
2022-09-04T10:11:54.389Z,2.00
2022-09-04T10:12:53.379Z,1.80
2022-09-04T10:13:52.420Z,2.10
2022-09-04T10:14:52.582Z,2.30
2022-09-04T10:15:52.587Z,2.40
2022-09-04T10:16:52.884Z,1.90
2022-09-04T10:17:54.404Z,2.40
2022-09-04T10:18:52.418Z,2.20
2022-09-04T10:19:52.358Z,1.90
2022-09-04T10:20:54.328Z,2.10
2022-09-04T10:21:52.320Z,2.00
2022-09-04T10:22:53.153Z,2.10
2022-09-04T10:23:52.326Z,2.20
2022-09-04T10:24:52.292Z,1.80
2022-09-04T10:25:54.224Z,1.90
2022-09-04T10:26:52.282Z,2.30
2022-09-04T10:27:53.056Z,2.10
2022-09-04T10:28:54.208Z,2.10
2022-09-04T10:29:53.672Z,2.00
2022-09-04T10:30:52.497Z,2.20
2022-09-04T10:31:52.695Z,2.20
2022-09-04T10:32:52.288Z,2.00
2022-09-04T10:33:52.980Z,2.00
2022-09-04T10:34:52.296Z,1.80
2022-09-04T10:35:52.168Z,2.00
2022-09-04T10:36:54.134Z,2.10
2022-09-04T10:37:52.238Z,1.90
2022-09-04T10:38:54.142Z,1.90
2022-09-04T10:39:52.255Z,2.40
2022-09-04T10:40:52.165Z,2.20
2022-09-04T10:41:54.071Z,2.00
2022-09-04T10:42:52.086Z,2.00
2022-09-04T10:43:54.042Z,1.80
2022-09-04T10:44:54.109Z,1.80
2022-09-04T10:45:54.267Z,2.10
2022-09-04T10:46:52.941Z,2.10
2022-09-04T10:47:54.040Z,1.90
2022-09-04T10:48:53.999Z,1.50
2022-09-04T10:49:52.029Z,1.70
2022-09-04T10:50:51.997Z,1.70
2022-09-04T10:51:52.016Z,1.40
2022-09-04T10:52:52.032Z,1.70
2022-09-04T10:53:52.017Z,1.70
2022-09-04T10:54:51.971Z,1.70
2022-09-04T10:55:51.987Z,1.80
2022-09-04T10:56:52.027Z,1.60
2022-09-04T10:57:51.947Z,1.60
2022-09-04T10:58:51.984Z,1.70
2022-09-04T10:59:58.393Z,1.70
2022-09-04T11:00:54.951Z,2.00
2022-09-04T11:01:51.902Z,1.40
2022-09-04T11:02:52.013Z,2.20
2022-09-04T11:03:51.990Z,1.80
2022-09-04T11:04:53.310Z,2.00
2022-09-04T11:05:51.862Z,2.00
2022-09-04T11:06:52.709Z,1.60
2022-09-04T11:07:51.861Z,1.70
2022-09-04T11:08:52.008Z,2.10
2022-09-04T11:09:51.864Z,2.00
2022-09-04T11:10:51.792Z,1.70
2022-09-04T11:11:52.780Z,1.70
2022-09-04T11:12:51.978Z,1.60
2022-09-04T11:13:53.257Z,1.90
2022-09-04T11:14:51.793Z,1.70
2022-09-04T11:15:51.867Z,1.50
2022-09-04T11:16:52.417Z,1.80
2022-09-04T11:17:54.197Z,1.70
2022-09-04T11:18:52.568Z,1.70
2022-09-04T11:19:51.709Z,2.00
2022-09-04T11:20:52.241Z,1.80
2022-09-04T11:21:52.732Z,1.70
2022-09-04T11:22:57.676Z,1.60
2022-09-04T11:23:51.629Z,1.60
2022-09-04T11:24:51.678Z,2.10
2022-09-04T11:25:51.619Z,1.80
2022-09-04T11:26:51.658Z,1.70
2022-09-04T11:27:51.613Z,1.90
2022-09-04T11:28:51.622Z,1.90
2022-09-04T11:29:51.699Z,2.00
2022-09-04T11:30:51.552Z,1.90
2022-09-04T11:31:51.591Z,1.90
2022-09-04T11:32:51.595Z,1.70
2022-09-04T11:33:52.623Z,1.80
2022-09-04T11:34:51.523Z,1.80
2022-09-04T11:35:52.965Z,1.80
2022-09-04T11:36:51.724Z,1.70
2022-09-04T11:37:57.029Z,1.70
2022-09-04T11:38:52.916Z,1.80
2022-09-04T11:39:51.520Z,1.60
2022-09-04T11:40:52.940Z,1.70
2022-09-04T11:41:51.432Z,1.50
2022-09-04T11:42:51.481Z,1.90
2022-09-04T11:43:51.466Z,1.70
2022-09-04T11:44:51.410Z,1.60
2022-09-04T11:45:52.337Z,1.70
2022-09-04T11:46:51.379Z,1.70
2022-09-04T11:47:52.864Z,1.70
2022-09-04T11:48:52.845Z,1.80
2022-09-04T11:49:51.572Z,1.80
2022-09-04T11:50:51.359Z,1.70
2022-09-04T11:51:51.814Z,1.80
2022-09-04T11:52:52.842Z,1.90
2022-09-04T11:53:51.447Z,2.00
2022-09-04T11:54:51.325Z,1.50
2022-09-04T11:55:52.861Z,1.80
2022-09-04T11:56:51.342Z,1.80
2022-09-04T11:57:51.267Z,1.40
2022-09-04T11:58:51.276Z,1.60
2022-09-04T11:59:52.858Z,1.60
2022-09-04T12:00:51.270Z,1.40
2022-09-04T12:01:51.252Z,1.40
2022-09-04T12:02:51.206Z,1.70
2022-09-04T12:03:51.858Z,1.70
2022-09-04T12:04:51.393Z,1.60
2022-09-04T12:05:52.008Z,2.00
2022-09-04T12:06:51.641Z,1.70
2022-09-04T12:07:52.846Z,1.50
2022-09-04T12:08:51.371Z,1.60
2022-09-04T12:09:51.350Z,2.00
2022-09-04T12:10:52.856Z,1.70
2022-09-04T12:11:53.068Z,1.80
2022-09-04T12:12:52.862Z,1.80
2022-09-04T12:13:51.939Z,1.90
2022-09-04T12:14:51.181Z,2.00
2022-09-04T12:15:52.871Z,1.90
2022-09-04T12:16:52.932Z,1.60
2022-09-04T12:17:51.988Z,1.60
2022-09-04T12:18:51.915Z,2.20
2022-09-04T12:19:51.844Z,1.50
2022-09-04T12:20:51.590Z,1.60
2022-09-04T12:21:51.885Z,1.90
2022-09-04T12:22:52.884Z,2.20
2022-09-04T12:23:51.202Z,1.80
2022-09-04T12:24:51.772Z,1.90
2022-09-04T12:25:51.766Z,1.60
2022-09-04T12:26:55.112Z,1.50
2022-09-04T12:27:52.872Z,1.30
2022-09-04T12:28:51.773Z,1.50
2022-09-04T12:29:52.872Z,1.60
2022-09-04T12:30:52.887Z,1.60
2022-09-04T12:31:51.952Z,1.40
2022-09-04T12:32:52.853Z,1.20
2022-09-04T12:33:52.822Z,1.60
2022-09-04T12:34:51.686Z,1.40
2022-09-04T12:35:52.815Z,1.20
2022-09-04T12:36:52.816Z,1.40
2022-09-04T12:37:52.779Z,1.80
2022-09-04T12:38:51.700Z,1.40
2022-09-04T12:39:52.802Z,1.40
2022-09-04T12:40:52.804Z,1.30
2022-09-04T12:41:52.723Z,1.20
2022-09-04T12:42:51.294Z,1.00
2022-09-04T12:43:51.610Z,1.20
2022-09-04T12:44:50.762Z,1.20
2022-09-04T12:45:50.806Z,1.40
2022-09-04T12:46:52.694Z,1.40
2022-09-04T12:47:57.211Z,1.30
2022-09-04T12:48:50.981Z,1.30
2022-09-04T12:49:50.862Z,1.20
2022-09-04T12:50:52.078Z,1.50
2022-09-04T12:51:51.584Z,1.40
2022-09-04T12:52:52.627Z,1.30
2022-09-04T12:53:53.111Z,1.00
2022-09-04T12:54:52.633Z,1.10
2022-09-04T12:55:52.602Z,1.00
2022-09-04T12:56:51.456Z,1.00
2022-09-04T12:57:52.574Z,0.90
2022-09-04T12:58:51.926Z,1.00
2022-09-04T12:59:52.081Z,1.00
2022-09-04T13:00:52.096Z,1.10
2022-09-04T13:01:52.266Z,1.10
2022-09-04T13:02:51.368Z,1.20
2022-09-04T13:03:52.504Z,1.20
2022-09-04T13:04:52.517Z,1.10
2022-09-04T13:05:53.040Z,1.20
2022-09-04T13:06:53.612Z,1.00
2022-09-04T13:07:51.296Z,1.10
2022-09-04T13:08:52.507Z,1.00
2022-09-04T13:09:53.649Z,1.20
2022-09-04T13:10:51.304Z,1.00
2022-09-04T13:11:52.424Z,1.20
2022-09-04T13:12:52.406Z,1.00
2022-09-04T13:13:52.404Z,0.80
2022-09-04T13:14:51.438Z,1.00
2022-09-04T13:15:52.415Z,1.00
2022-09-04T13:16:55.006Z,1.00
2022-09-04T13:17:50.535Z,1.00
2022-09-04T13:18:52.357Z,0.90